createdAt,value
2022-08-30T00:01:32.896Z,15.15
2022-08-30T00:04:02.034Z,12.40
2022-08-30T00:06:30.453Z,7.93
2022-08-30T00:08:57.899Z,6.65
2022-08-30T00:11:28.171Z,6.47
2022-08-30T00:13:58.084Z,6.35
2022-08-30T00:16:26.815Z,6.43
2022-08-30T00:18:54.878Z,6.13
2022-08-30T00:21:23.365Z,7.65
2022-08-30T00:23:50.776Z,6.93
2022-08-30T00:26:17.649Z,12.85
2022-08-30T00:28:44.715Z,5.35
2022-08-30T00:31:14.933Z,4.70
2022-08-30T00:33:43.124Z,7.28
2022-08-30T00:36:09.947Z,5.63
2022-08-30T00:38:36.959Z,5.28
2022-08-30T00:41:03.961Z,6.40
2022-08-30T00:43:36.695Z,3.92
2022-08-30T00:46:08.552Z,5.03
2022-08-30T00:48:41.005Z,4.47
2022-08-30T00:51:12.632Z,7.47
2022-08-30T00:53:45.061Z,8.93
2022-08-30T00:56:14.219Z,5.80
2022-08-30T00:58:48.850Z,7.40
2022-08-30T01:01:17.236Z,6.65
2022-08-30T01:03:45.761Z,4.88
2022-08-30T01:06:17.594Z,6.45
2022-08-30T01:08:47.333Z,5.32
2022-08-30T01:11:20.196Z,4.47
2022-08-30T01:13:51.838Z,3.75
2022-08-30T01:16:19.375Z,7.07
2022-08-30T01:18:48.901Z,3.65
2022-08-30T01:21:36.839Z,4.43
2022-08-30T01:24:07.497Z,4.45
2022-08-30T01:26:36.986Z,4.90
2022-08-30T01:29:13.313Z,4.72
2022-08-30T01:31:40.408Z,7.75
2022-08-30T01:34:08.483Z,7.50
2022-08-30T01:36:44.777Z,6.85
2022-08-30T01:39:15.892Z,3.85
2022-08-30T01:41:43.628Z,5.28
2022-08-30T01:44:13.077Z,4.72
2022-08-30T01:46:47.589Z,5.43
2022-08-30T01:49:27.480Z,6.40
2022-08-30T01:52:01.108Z,5.22
2022-08-30T01:54:33.248Z,4.10
2022-08-30T01:57:09.917Z,4.22
2022-08-30T01:59:39.286Z,3.83
2022-08-30T02:02:07.443Z,9.68
2022-08-30T02:04:36.708Z,4.47
2022-08-30T02:07:05.287Z,8.48
2022-08-30T02:09:32.525Z,5.90
2022-08-30T02:11:59.519Z,6.65
2022-08-30T02:14:27.567Z,5.85
2022-08-30T02:16:54.823Z,6.00
2022-08-30T02:19:21.881Z,5.82
2022-08-30T02:21:49.790Z,5.22
2022-08-30T02:24:16.958Z,8.50
2022-08-30T02:26:43.746Z,4.57
2022-08-30T02:29:10.652Z,5.18
2022-08-30T02:31:37.629Z,5.10
2022-08-30T02:34:04.852Z,10.43
2022-08-30T02:36:32.438Z,5.60
2022-08-30T02:38:59.773Z,5.13
2022-08-30T02:41:26.630Z,9.38
2022-08-30T02:43:58.392Z,5.22
2022-08-30T02:46:25.588Z,5.18
2022-08-30T02:48:52.437Z,4.85
2022-08-30T02:51:19.770Z,5.80
2022-08-30T02:53:46.890Z,6.47
2022-08-30T02:56:14.679Z,5.25
2022-08-30T02:58:43.683Z,6.18
2022-08-30T03:01:14.475Z,8.77
2022-08-30T03:03:44.300Z,5.53
2022-08-30T03:06:11.833Z,5.07
2022-08-30T03:08:38.929Z,9.13
2022-08-30T03:11:06.436Z,5.38
2022-08-30T03:13:33.898Z,6.63
2022-08-30T03:16:00.800Z,6.28
2022-08-30T03:18:28.390Z,5.95
2022-08-30T03:20:55.553Z,6.72
2022-08-30T03:23:24.166Z,6.57
2022-08-30T03:25:53.482Z,10.68
2022-08-30T03:28:20.729Z,5.25
2022-08-30T03:30:48.068Z,11.73
2022-08-30T03:33:15.651Z,6.57
2022-08-30T03:35:42.860Z,11.48
2022-08-30T03:38:09.742Z,7.43
2022-08-30T03:40:36.743Z,8.50
2022-08-30T03:43:05.413Z,7.63
2022-08-30T03:45:32.458Z,6.40
2022-08-30T03:47:59.682Z,9.18
2022-08-30T03:50:26.833Z,7.72
2022-08-30T03:52:53.675Z,8.18
2022-08-30T03:55:21.007Z,8.88
2022-08-30T03:57:48.016Z,7.35
2022-08-30T04:00:17.278Z,10.10
2022-08-30T04:02:44.109Z,6.63
2022-08-30T04:05:12.797Z,8.02
2022-08-30T04:07:41.608Z,7.32
2022-08-30T04:10:10.302Z,10.30
2022-08-30T04:12:38.572Z,6.32
2022-08-30T04:15:06.557Z,7.38
2022-08-30T04:17:33.502Z,6.57
2022-08-30T04:20:00.627Z,8.50
2022-08-30T04:22:27.653Z,7.43
2022-08-30T04:24:54.528Z,7.03
2022-08-30T04:27:21.564Z,5.90
2022-08-30T04:29:48.718Z,7.28
2022-08-30T04:32:16.848Z,7.97
2022-08-30T04:34:43.914Z,7.20
2022-08-30T04:37:10.878Z,6.97
2022-08-30T04:39:37.821Z,10.00
2022-08-30T04:42:04.937Z,10.07
2022-08-30T04:44:32.945Z,8.00
2022-08-30T04:47:00.891Z,13.13
2022-08-30T04:49:28.094Z,9.23
2022-08-30T04:51:55.837Z,4.70
2022-08-30T04:54:22.826Z,4.57
2022-08-30T04:56:49.806Z,8.00
2022-08-30T04:59:16.885Z,11.27
2022-08-30T05:01:44.773Z,7.15
2022-08-30T05:04:14.867Z,8.65
2022-08-30T05:06:42.835Z,6.07
2022-08-30T05:09:09.854Z,9.43
2022-08-30T05:11:38.226Z,8.80
2022-08-30T05:14:06.061Z,10.27
2022-08-30T05:16:32.941Z,5.40
2022-08-30T05:19:00.233Z,5.47
2022-08-30T05:21:29.146Z,9.43
2022-08-30T05:24:01.206Z,8.60
2022-08-30T05:26:33.334Z,9.68
2022-08-30T05:29:01.377Z,11.68
2022-08-30T05:31:34.413Z,12.48
2022-08-30T05:34:03.285Z,8.77
2022-08-30T05:36:33.537Z,10.57
2022-08-30T05:39:00.758Z,11.27
2022-08-30T05:41:28.752Z,7.00
2022-08-30T05:43:59.167Z,9.60
2022-08-30T05:49:08.048Z,6.75
2022-08-30T05:51:43.485Z,5.32
2022-08-30T05:54:14.483Z,8.48
2022-08-30T05:56:45.251Z,7.55
2022-08-30T05:59:13.997Z,11.45
2022-08-30T06:01:46.998Z,7.35
2022-08-30T06:04:15.172Z,6.22
2022-08-30T06:06:44.311Z,10.10
2022-08-30T06:09:14.003Z,7.25
2022-08-30T06:11:43.952Z,6.70
2022-08-30T06:14:11.560Z,7.35
2022-08-30T06:16:46.090Z,8.52
2022-08-30T06:19:16.731Z,10.57
2022-08-30T06:21:48.516Z,9.45
2022-08-30T06:24:16.420Z,8.18
2022-08-30T06:26:47.170Z,8.88
2022-08-30T06:29:18.932Z,8.77
2022-08-30T06:31:46.393Z,8.60
2022-08-30T06:34:14.148Z,11.52
2022-08-30T06:36:42.752Z,7.18
2022-08-30T06:39:10.811Z,8.55
2022-08-30T06:41:41.561Z,11.90
2022-08-30T06:44:09.157Z,7.30
2022-08-30T06:46:38.941Z,5.43
2022-08-30T06:49:11.836Z,5.60
2022-08-30T06:51:40.193Z,13.98
2022-08-30T06:54:11.961Z,8.88
2022-08-30T06:56:48.724Z,8.00
2022-08-30T06:59:25.955Z,14.60
2022-08-30T07:01:55.395Z,19.40
2022-08-30T07:04:22.347Z,10.63
2022-08-30T07:06:49.298Z,6.30
2022-08-30T07:09:16.814Z,10.80
2022-08-30T07:11:44.754Z,7.65
2022-08-30T07:14:11.867Z,7.57
2022-08-30T07:16:39.288Z,6.55
2022-08-30T07:19:06.885Z,7.93
2022-08-30T07:21:43.775Z,7.55
2022-08-30T07:24:13.574Z,8.55
2022-08-30T07:26:47.323Z,11.25
2022-08-30T07:29:16.116Z,8.00
2022-08-30T07:31:44.693Z,8.50
2022-08-30T07:34:12.164Z,7.18
2022-08-30T07:36:40.142Z,8.75
2022-08-30T07:39:08.227Z,8.38
2022-08-30T07:41:39.027Z,10.10
2022-08-30T07:44:10.116Z,10.50
2022-08-30T07:46:39.442Z,8.63
2022-08-30T07:49:11.104Z,12.07
2022-08-30T07:51:41.176Z,9.55
2022-08-30T07:54:08.742Z,13.50
2022-08-30T07:56:36.036Z,8.02
2022-08-30T07:59:03.518Z,13.32
2022-08-30T08:01:31.325Z,10.02
2022-08-30T08:03:58.440Z,18.17
2022-08-30T08:06:25.744Z,13.45
2022-08-30T08:08:53.778Z,9.20
2022-08-30T08:11:28.457Z,10.63
2022-08-30T08:13:58.850Z,11.82
2022-08-30T08:16:29.090Z,10.02
2022-08-30T08:18:56.495Z,9.90
2022-08-30T08:21:25.898Z,11.75
2022-08-30T08:23:53.461Z,8.48
2022-08-30T08:26:24.288Z,8.98
2022-08-30T08:28:53.583Z,11.70
2022-08-30T08:31:33.291Z,12.32
2022-08-30T08:34:06.216Z,9.80
2022-08-30T08:36:36.271Z,11.25
2022-08-30T08:39:07.744Z,7.95
2022-08-30T08:42:15.287Z,6.97
2022-08-30T08:45:10.147Z,6.72
2022-08-30T08:50:32.020Z,8.82
2022-08-30T08:53:49.396Z,9.23
2022-08-30T08:56:19.756Z,8.70
2022-08-30T08:58:52.124Z,7.82
2022-08-30T09:01:24.119Z,6.22
2022-08-30T09:03:52.086Z,12.18
2022-08-30T09:06:45.275Z,10.43
2022-08-30T09:09:13.631Z,10.10
2022-08-30T09:11:44.511Z,15.35
2022-08-30T09:14:44.205Z,8.25
2022-08-30T09:17:18.102Z,11.15
2022-08-30T09:19:46.593Z,7.72
2022-08-30T09:22:46.699Z,11.55
2022-08-30T09:25:13.728Z,8.38
2022-08-30T09:27:47.545Z,8.48
2022-08-30T09:30:27.273Z,9.75
2022-08-30T09:33:03.688Z,9.80
2022-08-30T09:35:50.495Z,8.15
2022-08-30T09:38:29.439Z,8.85
2022-08-30T09:41:00.945Z,14.18
2022-08-30T09:43:33.992Z,6.07
2022-08-30T09:46:01.061Z,7.70
2022-08-30T09:48:44.552Z,6.75
2022-08-30T09:51:11.670Z,11.07
2022-08-30T09:57:13.176Z,9.55
2022-08-30T09:59:54.896Z,9.20
2022-08-30T10:02:47.883Z,12.00
2022-08-30T10:06:01.933Z,10.75
2022-08-30T10:08:51.299Z,8.73
2022-08-30T10:11:42.272Z,10.45
2022-08-30T10:14:18.340Z,13.52
2022-08-30T10:17:23.704Z,11.15
2022-08-30T10:20:19.603Z,5.70
2022-08-30T10:23:12.663Z,6.85
2022-08-30T10:25:51.476Z,8.55
2022-08-30T10:28:36.731Z,9.93
2022-08-30T10:31:29.460Z,6.68
2022-08-30T10:34:10.160Z,10.25
2022-08-30T10:36:46.910Z,11.15
2022-08-30T10:39:32.860Z,7.20
2022-08-30T10:42:30.667Z,11.85
2022-08-30T10:45:13.498Z,7.68
2022-08-30T10:47:53.907Z,8.50
2022-08-30T10:50:29.702Z,19.52
2022-08-30T10:53:09.864Z,7.18
2022-08-30T10:55:50.011Z,5.80
2022-08-30T10:58:18.681Z,7.68
2022-08-30T11:01:12.662Z,9.75
2022-08-30T11:04:00.829Z,10.75
2022-08-30T11:07:00.321Z,6.80
2022-08-30T11:09:47.145Z,6.53
2022-08-30T11:12:17.118Z,5.80
2022-08-30T11:14:46.849Z,6.82
2022-08-30T11:17:58.741Z,11.57
2022-08-30T11:20:42.435Z,4.68
2022-08-30T11:23:18.715Z,7.70
2022-08-30T11:26:04.110Z,4.70
2022-08-30T11:31:30.965Z,3.28
2022-08-30T11:34:01.084Z,4.53
2022-08-30T11:36:45.978Z,2.88
2022-08-30T11:39:49.095Z,2.65
2022-08-30T11:42:43.410Z,3.92
2022-08-30T11:45:22.315Z,3.35
2022-08-30T11:48:04.575Z,4.40
2022-08-30T11:50:59.908Z,3.53
2022-08-30T11:54:02.942Z,5.78
2022-08-30T11:57:00.845Z,3.22
2022-08-30T11:59:39.301Z,4.10
2022-08-30T12:02:08.307Z,5.95
2022-08-30T12:04:45.816Z,4.53
2022-08-30T12:08:01.557Z,4.35
2022-08-30T12:10:43.962Z,5.70
2022-08-30T12:13:39.457Z,4.22
2022-08-30T12:16:11.650Z,2.90
2022-08-30T12:18:50.683Z,3.45
2022-08-30T12:21:21.342Z,2.95
2022-08-30T12:23:54.616Z,4.70
2022-08-30T12:26:25.129Z,2.67
2022-08-30T12:29:05.958Z,2.67
2022-08-30T12:31:40.762Z,5.45
2022-08-30T12:36:40.512Z,7.50
2022-08-30T12:39:22.978Z,3.35
2022-08-30T12:41:50.844Z,2.55
2022-08-30T12:44:28.859Z,4.25
2022-08-30T12:47:05.606Z,2.20
2022-08-30T12:49:38.019Z,3.13
2022-08-30T12:52:31.684Z,3.83
2022-08-30T12:55:21.993Z,2.17
2022-08-30T12:58:09.428Z,5.05
2022-08-30T13:00:42.589Z,1.92
2022-08-30T13:03:35.106Z,3.50
2022-08-30T13:06:03.561Z,2.63
2022-08-30T13:08:45.885Z,2.00
2022-08-30T13:11:29.619Z,2.78
2022-08-30T13:14:44.589Z,1.90
2022-08-30T13:17:28.946Z,1.92
2022-08-30T13:20:17.250Z,3.60
2022-08-30T13:23:08.780Z,1.83
2022-08-30T13:25:39.256Z,2.13
2022-08-30T13:28:07.822Z,1.92
2022-08-30T13:30:35.819Z,1.77
2022-08-30T13:33:03.175Z,2.55
2022-08-30T13:35:31.441Z,1.85
2022-08-30T13:38:01.991Z,4.07
2022-08-30T13:40:29.097Z,1.77
2022-08-30T13:42:56.809Z,4.63
2022-08-30T13:45:41.608Z,2.10
2022-08-30T13:48:11.440Z,2.72
2022-08-30T13:50:39.492Z,3.40
2022-08-30T13:53:09.161Z,7.03
2022-08-30T13:55:39.955Z,1.67
2022-08-30T13:58:08.535Z,2.67
2022-08-30T14:00:38.036Z,2.55
2022-08-30T14:03:05.441Z,3.20
2022-08-30T14:06:09.999Z,2.00
2022-08-30T14:08:48.279Z,1.98
2022-08-30T14:11:20.887Z,1.95
2022-08-30T14:16:44.537Z,1.95
2022-08-30T14:19:14.970Z,4.90
2022-08-30T14:21:46.616Z,2.30
2022-08-30T14:26:52.297Z,3.38
2022-08-30T14:29:28.896Z,3.30
2022-08-30T14:31:56.936Z,2.42
2022-08-30T14:34:28.599Z,3.95
2022-08-30T14:36:56.393Z,5.15
2022-08-30T14:39:23.345Z,5.43
2022-08-30T14:41:55.352Z,1.90
2022-08-30T14:44:24.763Z,2.38
2022-08-30T14:46:52.243Z,1.77
2022-08-30T14:49:21.748Z,7.47
2022-08-30T14:51:50.602Z,2.33
2022-08-30T14:54:25.810Z,2.45
2022-08-30T14:56:53.946Z,5.78
2022-08-30T14:59:22.222Z,2.38
2022-08-30T15:01:49.075Z,2.40
2022-08-30T15:04:17.324Z,3.28
2022-08-30T15:06:48.350Z,3.13
2022-08-30T15:09:23.195Z,6.47
2022-08-30T15:11:54.969Z,4.13
2022-08-30T15:14:22.552Z,2.75
2022-08-30T15:16:49.957Z,7.93
2022-08-30T15:19:18.101Z,10.32
2022-08-30T15:21:48.406Z,5.45
2022-08-30T15:24:29.347Z,2.97
2022-08-30T15:27:00.799Z,3.78
2022-08-30T15:29:30.438Z,2.67
2022-08-30T15:32:00.722Z,4.38
2022-08-30T15:34:28.028Z,3.42
2022-08-30T15:36:56.461Z,4.13
2022-08-30T15:39:26.916Z,3.38
2022-08-30T15:41:59.797Z,7.50
2022-08-30T15:44:31.265Z,4.38
2022-08-30T15:46:58.645Z,4.63
2022-08-30T15:49:25.731Z,3.70
2022-08-30T15:51:54.202Z,4.32
2022-08-30T15:54:23.850Z,3.40
2022-08-30T15:56:59.050Z,4.57
2022-08-30T15:59:29.927Z,5.35
2022-08-30T16:01:57.839Z,2.80
2022-08-30T16:04:25.040Z,3.15
2022-08-30T16:06:53.437Z,4.22
2022-08-30T16:09:22.292Z,3.70
2022-08-30T16:11:50.365Z,2.70
2022-08-30T16:14:17.719Z,3.20
2022-08-30T16:16:48.845Z,4.65
2022-08-30T16:19:16.674Z,4.35
2022-08-30T16:21:44.201Z,3.67
2022-08-30T16:24:13.585Z,3.13
2022-08-30T16:26:43.066Z,4.80
2022-08-30T16:29:12.591Z,4.03
2022-08-30T16:31:44.313Z,3.88
2022-08-30T16:34:14.760Z,3.70
2022-08-30T16:36:41.692Z,6.22
2022-08-30T16:39:09.924Z,3.20
2022-08-30T16:41:37.881Z,4.72
2022-08-30T16:44:05.769Z,3.25
2022-08-30T16:46:34.450Z,2.90
2022-08-30T16:49:02.475Z,3.65
2022-08-30T16:51:33.229Z,3.78
2022-08-30T16:54:07.786Z,3.47
2022-08-30T16:56:37.093Z,3.50
2022-08-30T16:59:10.813Z,5.45
2022-08-30T17:01:42.270Z,3.45
2022-08-30T17:04:11.468Z,4.72
2022-08-30T17:06:41.194Z,4.63
2022-08-30T17:09:09.888Z,3.70
2022-08-30T17:11:40.210Z,5.47
2022-08-30T17:14:08.344Z,5.00
2022-08-30T17:16:37.516Z,6.65
2022-08-30T17:19:07.193Z,8.52
2022-08-30T17:21:34.801Z,5.28
2022-08-30T17:24:03.759Z,6.13
2022-08-30T17:26:34.413Z,3.92
2022-08-30T17:29:02.079Z,3.42
2022-08-30T17:31:31.076Z,5.88
2022-08-30T17:34:04.105Z,3.72
2022-08-30T17:36:36.494Z,6.82
2022-08-30T17:39:11.075Z,5.63
2022-08-30T17:41:45.406Z,3.45
2022-08-30T17:44:25.808Z,3.40
2022-08-30T17:46:55.602Z,2.80
2022-08-30T17:49:25.084Z,3.33
2022-08-30T17:51:56.325Z,5.63
2022-08-30T17:54:25.916Z,3.35
2022-08-30T17:56:54.151Z,5.07
2022-08-30T17:59:25.032Z,3.97
2022-08-30T18:01:55.376Z,6.18
2022-08-30T18:04:25.214Z,4.97
2022-08-30T18:06:55.792Z,5.13
2022-08-30T18:09:29.405Z,4.65
2022-08-30T18:11:59.309Z,4.03
2022-08-30T18:14:27.910Z,3.67
2022-08-30T18:16:55.100Z,4.25
2022-08-30T18:19:24.512Z,3.47
2022-08-30T18:21:53.155Z,3.08
2022-08-30T18:24:22.212Z,4.18
2022-08-30T18:26:51.017Z,3.00
2022-08-30T18:29:25.990Z,5.07
2022-08-30T18:32:02.802Z,3.33
2022-08-30T18:34:31.519Z,3.25
2022-08-30T18:36:58.656Z,4.30
2022-08-30T18:39:26.350Z,3.78
2022-08-30T18:41:55.691Z,3.17
2022-08-30T18:44:28.730Z,3.35
2022-08-30T18:47:08.536Z,3.17
2022-08-30T18:49:39.636Z,2.97
2022-08-30T18:52:16.579Z,8.45
2022-08-30T18:54:52.693Z,3.88
2022-08-30T18:57:26.547Z,4.25
2022-08-30T18:59:55.658Z,5.10
2022-08-30T19:02:27.511Z,3.20
2022-08-30T19:04:55.166Z,3.67
2022-08-30T19:10:13.932Z,3.33
2022-08-30T19:12:42.004Z,3.05
2022-08-30T19:15:11.830Z,2.72
2022-08-30T19:17:44.967Z,9.63
2022-08-30T19:20:17.035Z,3.03
2022-08-30T19:23:09.058Z,3.40
2022-08-30T19:25:31.450Z,4.50
2022-08-30T19:27:59.235Z,2.88
2022-08-30T19:30:29.976Z,4.72
2022-08-30T19:32:58.134Z,4.97
2022-08-30T19:35:25.676Z,3.20
2022-08-30T19:37:52.575Z,3.28
2022-08-30T19:40:23.517Z,4.25
2022-08-30T19:42:53.518Z,5.22
2022-08-30T19:45:23.646Z,3.90
2022-08-30T19:47:57.880Z,6.88
2022-08-30T19:50:27.040Z,3.13
2022-08-30T19:52:55.336Z,3.30
2022-08-30T19:55:30.294Z,5.47
2022-08-30T19:57:59.787Z,6.03
2022-08-30T20:00:31.149Z,2.88
2022-08-30T20:03:00.165Z,3.80
2022-08-30T20:05:30.598Z,3.13
2022-08-30T20:08:01.688Z,4.88
2022-08-30T20:10:29.481Z,3.20
2022-08-30T20:12:57.324Z,3.08
2022-08-30T20:15:25.867Z,6.78
2022-08-30T20:20:40.268Z,2.58
2022-08-30T20:23:07.403Z,3.15
2022-08-30T20:24:31.785Z,3.75
2022-08-30T20:25:36.487Z,4.70
2022-08-30T20:28:05.455Z,3.08
2022-08-30T20:30:33.349Z,3.13
2022-08-30T20:33:07.077Z,2.70
2022-08-30T20:35:36.572Z,2.80
2022-08-30T20:38:06.506Z,4.70
2022-08-30T20:40:38.922Z,3.33
2022-08-30T20:43:07.858Z,4.43
2022-08-30T20:45:35.177Z,3.78
2022-08-30T20:48:03.177Z,3.88
2022-08-30T20:50:31.027Z,3.05
2022-08-30T20:52:58.669Z,2.83
2022-08-30T20:55:25.677Z,2.70
2022-08-30T20:57:52.903Z,3.10
2022-08-30T21:00:20.698Z,3.30
2022-08-30T21:02:48.760Z,5.72
2022-08-30T21:05:17.614Z,3.00
2022-08-30T21:07:45.876Z,2.90
2022-08-30T21:10:13.931Z,3.92
2022-08-30T21:12:42.797Z,3.33
2022-08-30T21:15:34.113Z,3.75
2022-08-30T21:17:58.233Z,2.80
2022-08-30T21:20:25.134Z,3.30
2022-08-30T21:22:52.159Z,3.05
2022-08-30T21:25:19.511Z,3.38
2022-08-30T21:27:46.300Z,4.82
2022-08-30T21:30:14.693Z,3.50
2022-08-30T21:32:41.950Z,3.28
2022-08-30T21:35:28.392Z,3.42
2022-08-30T21:37:55.432Z,2.83
2022-08-30T21:40:22.505Z,2.88
2022-08-30T21:42:49.453Z,2.88
2022-08-30T21:45:16.629Z,3.28
2022-08-30T21:47:43.954Z,3.20
2022-08-30T21:50:12.045Z,3.25
2022-08-30T21:52:39.104Z,7.85
2022-08-30T21:55:06.527Z,6.03
2022-08-30T21:57:33.558Z,3.50
2022-08-30T22:00:00.659Z,3.60
2022-08-30T22:02:29.131Z,3.50
2022-08-30T22:04:56.105Z,4.55
2022-08-30T22:07:23.236Z,4.20
2022-08-30T22:09:50.242Z,3.85
2022-08-30T22:12:17.559Z,4.55
2022-08-30T22:14:44.638Z,4.68
2022-08-30T22:17:12.531Z,3.75
2022-08-30T22:19:40.036Z,3.95
2022-08-30T22:22:07.252Z,5.82
2022-08-30T22:24:34.096Z,4.07
2022-08-30T22:27:05.120Z,5.30
2022-08-30T22:29:32.917Z,2.90
2022-08-30T22:32:00.133Z,3.67
2022-08-30T22:34:27.185Z,4.97
2022-08-30T22:36:54.336Z,4.13
2022-08-30T22:39:21.150Z,3.42
2022-08-30T22:41:48.095Z,3.58
2022-08-30T22:44:15.039Z,3.20
2022-08-30T22:46:42.158Z,3.65
2022-08-30T22:49:10.839Z,3.85
2022-08-30T22:51:41.854Z,3.50
2022-08-30T22:54:10.213Z,3.42
2022-08-30T22:56:39.471Z,3.50
2022-08-30T22:59:07.470Z,4.13
2022-08-30T23:01:43.138Z,5.68
2022-08-30T23:04:11.849Z,4.75
2022-08-30T23:06:39.550Z,3.10
2022-08-30T23:09:07.337Z,4.07
2022-08-30T23:11:35.084Z,3.63
2022-08-30T23:14:04.231Z,4.22
2022-08-30T23:16:32.802Z,3.38
2022-08-30T23:19:00.600Z,3.42
2022-08-30T23:21:31.045Z,3.53
2022-08-30T23:24:17.885Z,4.28
2022-08-30T23:27:05.138Z,3.80
2022-08-30T23:29:51.964Z,4.22
2022-08-30T23:32:38.490Z,5.85
2022-08-30T23:35:31.479Z,3.85
2022-08-30T23:38:20.954Z,3.10
2022-08-30T23:41:06.215Z,4.22
2022-08-30T23:43:51.685Z,3.88
2022-08-30T23:46:39.607Z,3.70
2022-08-30T23:49:25.125Z,3.45
2022-08-30T23:52:10.410Z,3.85
2022-08-30T23:54:57.242Z,4.20
2022-08-30T23:57:45.038Z,3.45
